25  °C
Temperature
17  °C
  Dewpoint
   Humidity
Temp | Dewpoint | Humidity
10  km/h
Wind Speed
6  mph
Wind Speed
5  kts
Wind Speed
130°
South East

Wind Speed
Clear
Conditions
Pressure 1015.92 (hPa) - 30 (in)
Visibility 6.2 (mi) - 10.0 (km)

Current Conditions
LGTS
Location 6km (3.2mi)
Metar :LGTS 181850Z 13005KT CAVOK 25/17 Q1016 NOSIG
Sun 18th August 20:50 pm

Airport
  Metar Aviation API Data Provided by https://www.checkwx.com/ CSS/SVG/PHP scripts by weather34.com © 2015-2019